sensor_id;sensor_type;location;lat;lon;timestamp;temperature;humidity
16907;DHT22;8570;52.380;4.654;2023-02-28T00:04:22;3.60;99.90
16907;DHT22;8570;52.380;4.654;2023-02-28T00:09:24;3.60;99.90
16907;DHT22;8570;52.380;4.654;2023-02-28T00:14:26;3.60;99.90
16907;DHT22;8570;52.380;4.654;2023-02-28T00:19:29;3.70;99.90
16907;DHT22;8570;52.380;4.654;2023-02-28T00:24:31;3.70;99.90
16907;DHT22;8570;52.380;4.654;2023-02-28T00:29:33;3.70;99.90
16907;DHT22;8570;52.380;4.654;2023-02-28T00:34:36;3.80;99.90
16907;DHT22;8570;52.380;4.654;2023-02-28T00:39:39;3.80;99.90
16907;DHT22;8570;52.380;4.654;2023-02-28T00:44:41;3.80;99.90
16907;DHT22;8570;52.380;4.654;2023-02-28T00:49:45;3.80;99.90
16907;DHT22;8570;52.380;4.654;2023-02-28T00:54:46;3.80;99.90
16907;DHT22;8570;52.380;4.654;2023-02-28T00:59:48;3.90;99.90
16907;DHT22;8570;52.380;4.654;2023-02-28T01:04:51;3.90;99.90
16907;DHT22;8570;52.380;4.654;2023-02-28T01:09:54;3.90;99.90
16907;DHT22;8570;52.380;4.654;2023-02-28T01:14:56;3.90;99.90
16907;DHT22;8570;52.380;4.654;2023-02-28T01:19:59;4.00;99.90
16907;DHT22;8570;52.380;4.654;2023-02-28T01:25:01;4.00;99.90
16907;DHT22;8570;52.380;4.654;2023-02-28T01:30:04;4.00;99.90
16907;DHT22;8570;52.380;4.654;2023-02-28T01:35:08;4.00;99.90
16907;DHT22;8570;52.380;4.654;2023-02-28T01:40:11;4.00;99.90
16907;DHT22;8570;52.380;4.654;2023-02-28T01:45:21;4.00;99.90
16907;DHT22;8570;52.380;4.654;2023-02-28T01:50:27;4.00;99.90
16907;DHT22;8570;52.380;4.654;2023-02-28T01:55:30;4.00;99.90
16907;DHT22;8570;52.380;4.654;2023-02-28T02:00:32;4.00;99.90
16907;DHT22;8570;52.380;4.654;2023-02-28T02:05:37;4.10;99.90
16907;DHT22;8570;52.380;4.654;2023-02-28T02:10:41;4.10;99.90
16907;DHT22;8570;52.380;4.654;2023-02-28T02:15:49;4.10;99.90
16907;DHT22;8570;52.380;4.654;2023-02-28T02:21:15;4.10;99.90
16907;DHT22;8570;52.380;4.654;2023-02-28T02:26:34;4.10;99.90
16907;DHT22;8570;52.380;4.654;2023-02-28T02:31:56;4.20;99.90
16907;DHT22;8570;52.380;4.654;2023-02-28T02:37:11;4.20;99.90
16907;DHT22;8570;52.380;4.654;2023-02-28T02:42:21;4.20;99.90
16907;DHT22;8570;52.380;4.654;2023-02-28T02:47:27;4.20;99.90
16907;DHT22;8570;52.380;4.654;2023-02-28T02:52:37;4.20;99.90
16907;DHT22;8570;52.380;4.654;2023-02-28T02:57:45;4.30;99.90
16907;DHT22;8570;52.380;4.654;2023-02-28T03:02:48;4.30;99.90
16907;DHT22;8570;52.380;4.654;2023-02-28T03:07:52;4.30;99.90
16907;DHT22;8570;52.380;4.654;2023-02-28T03:18:21;4.30;99.90
16907;DHT22;8570;52.380;4.654;2023-02-28T03:23:32;4.30;99.90
16907;DHT22;8570;52.380;4.654;2023-02-28T03:28:42;4.40;99.90
16907;DHT22;8570;52.380;4.654;2023-02-28T03:33:49;4.40;99.90
16907;DHT22;8570;52.380;4.654;2023-02-28T03:38:58;4.40;99.90
16907;DHT22;8570;52.380;4.654;2023-02-28T03:44:05;4.40;99.90
16907;DHT22;8570;52.380;4.654;2023-02-28T03:49:14;4.40;99.90
16907;DHT22;8570;52.380;4.654;2023-02-28T03:54:22;4.40;99.90
16907;DHT22;8570;52.380;4.654;2023-02-28T03:59:28;4.40;99.90
16907;DHT22;8570;52.380;4.654;2023-02-28T04:04:30;4.40;99.90
16907;DHT22;8570;52.380;4.654;2023-02-28T04:09:34;4.50;99.90
16907;DHT22;8570;52.380;4.654;2023-02-28T04:14:36;4.50;99.90
16907;DHT22;8570;52.380;4.654;2023-02-28T04:19:38;4.50;99.90
16907;DHT22;8570;52.380;4.654;2023-02-28T04:24:41;4.50;99.90
16907;DHT22;8570;52.380;4.654;2023-02-28T04:29:43;4.50;99.90
16907;DHT22;8570;52.380;4.654;2023-02-28T04:34:45;4.50;99.90
16907;DHT22;8570;52.380;4.654;2023-02-28T04:39:48;4.50;99.90
16907;DHT22;8570;52.380;4.654;2023-02-28T04:44:50;4.50;99.90
16907;DHT22;8570;52.380;4.654;2023-02-28T04:49:52;4.50;99.90
16907;DHT22;8570;52.380;4.654;2023-02-28T04:54:55;4.50;99.90
16907;DHT22;8570;52.380;4.654;2023-02-28T04:59:57;4.50;99.90
16907;DHT22;8570;52.380;4.654;2023-02-28T05:04:59;4.60;99.90
16907;DHT22;8570;52.380;4.654;2023-02-28T05:10:02;4.60;99.90
16907;DHT22;8570;52.380;4.654;2023-02-28T05:15:05;4.60;99.90
16907;DHT22;8570;52.380;4.654;2023-02-28T05:20:08;4.60;99.90
16907;DHT22;8570;52.380;4.654;2023-02-28T05:25:18;4.60;99.90
16907;DHT22;8570;52.380;4.654;2023-02-28T05:30:20;4.60;99.90
16907;DHT22;8570;52.380;4.654;2023-02-28T05:35:22;4.60;99.90
16907;DHT22;8570;52.380;4.654;2023-02-28T05:40:25;4.60;99.90
16907;DHT22;8570;52.380;4.654;2023-02-28T05:45:27;4.60;99.90
16907;DHT22;8570;52.380;4.654;2023-02-28T05:50:29;4.60;99.90
16907;DHT22;8570;52.380;4.654;2023-02-28T05:55:33;4.70;99.90
16907;DHT22;8570;52.380;4.654;2023-02-28T06:00:36;4.70;99.90
16907;DHT22;8570;52.380;4.654;2023-02-28T06:05:38;4.70;99.90
16907;DHT22;8570;52.380;4.654;2023-02-28T06:10:41;4.70;99.90
16907;DHT22;8570;52.380;4.654;2023-02-28T06:15:43;4.70;99.90
16907;DHT22;8570;52.380;4.654;2023-02-28T06:20:52;4.60;99.90
16907;DHT22;8570;52.380;4.654;2023-02-28T06:25:56;4.60;99.90
16907;DHT22;8570;52.380;4.654;2023-02-28T06:30:58;4.60;99.90
16907;DHT22;8570;52.380;4.654;2023-02-28T06:36:00;4.50;99.90
16907;DHT22;8570;52.380;4.654;2023-02-28T06:41:05;4.50;99.90
16907;DHT22;8570;52.380;4.654;2023-02-28T06:46:08;4.50;99.90
16907;DHT22;8570;52.380;4.654;2023-02-28T06:51:14;4.50;99.90
16907;DHT22;8570;52.380;4.654;2023-02-28T06:56:19;4.50;99.90
16907;DHT22;8570;52.380;4.654;2023-02-28T07:01:22;4.40;99.90
16907;DHT22;8570;52.380;4.654;2023-02-28T07:06:24;4.30;99.90
16907;DHT22;8570;52.380;4.654;2023-02-28T07:11:28;4.20;99.90
16907;DHT22;8570;52.380;4.654;2023-02-28T07:16:30;4.20;99.90
16907;DHT22;8570;52.380;4.654;2023-02-28T07:21:31;4.10;99.90
16907;DHT22;8570;52.380;4.654;2023-02-28T07:26:35;4.10;99.90
16907;DHT22;8570;52.380;4.654;2023-02-28T07:31:36;4.00;99.90
16907;DHT22;8570;52.380;4.654;2023-02-28T07:36:38;3.90;99.90
16907;DHT22;8570;52.380;4.654;2023-02-28T07:41:42;3.90;99.90
16907;DHT22;8570;52.380;4.654;2023-02-28T07:46:44;3.90;99.90
16907;DHT22;8570;52.380;4.654;2023-02-28T07:51:46;3.80;99.90
16907;DHT22;8570;52.380;4.654;2023-02-28T07:56:49;3.70;99.90
16907;DHT22;8570;52.380;4.654;2023-02-28T08:01:51;3.60;99.90
16907;DHT22;8570;52.380;4.654;2023-02-28T08:06:53;3.50;99.90
16907;DHT22;8570;52.380;4.654;2023-02-28T08:11:58;3.40;99.90
16907;DHT22;8570;52.380;4.654;2023-02-28T08:17:00;3.30;99.90
16907;DHT22;8570;52.380;4.654;2023-02-28T08:22:02;3.20;99.90
16907;DHT22;8570;52.380;4.654;2023-02-28T08:27:05;3.10;99.90
16907;DHT22;8570;52.380;4.654;2023-02-28T08:32:07;3.00;99.90
16907;DHT22;8570;52.380;4.654;2023-02-28T08:37:09;2.90;99.90
16907;DHT22;8570;52.380;4.654;2023-02-28T08:42:13;2.90;99.90
16907;DHT22;8570;52.380;4.654;2023-02-28T08:47:15;2.80;99.90
16907;DHT22;8570;52.380;4.654;2023-02-28T08:52:17;2.80;99.90
16907;DHT22;8570;52.380;4.654;2023-02-28T08:57:20;2.80;99.90
16907;DHT22;8570;52.380;4.654;2023-02-28T09:02:22;2.80;99.90
16907;DHT22;8570;52.380;4.654;2023-02-28T09:07:24;2.80;99.90
16907;DHT22;8570;52.380;4.654;2023-02-28T09:12:27;2.80;99.90
16907;DHT22;8570;52.380;4.654;2023-02-28T09:17:33;2.80;99.90
16907;DHT22;8570;52.380;4.654;2023-02-28T09:22:35;2.80;99.90
16907;DHT22;8570;52.380;4.654;2023-02-28T09:27:38;2.80;99.90
16907;DHT22;8570;52.380;4.654;2023-02-28T09:32:40;2.80;99.90
16907;DHT22;8570;52.380;4.654;2023-02-28T09:37:42;2.80;99.90
16907;DHT22;8570;52.380;4.654;2023-02-28T09:42:47;2.90;99.90
16907;DHT22;8570;52.380;4.654;2023-02-28T09:47:51;2.90;99.90
16907;DHT22;8570;52.380;4.654;2023-02-28T09:52:55;3.00;99.90
16907;DHT22;8570;52.380;4.654;2023-02-28T09:57:59;3.10;99.90
16907;DHT22;8570;52.380;4.654;2023-02-28T10:03:17;3.20;99.90
16907;DHT22;8570;52.380;4.654;2023-02-28T10:08:24;3.30;99.90
16907;DHT22;8570;52.380;4.654;2023-02-28T10:13:32;3.40;99.90
16907;DHT22;8570;52.380;4.654;2023-02-28T10:18:42;3.50;99.90
16907;DHT22;8570;52.380;4.654;2023-02-28T10:23:45;3.60;99.90
16907;DHT22;8570;52.380;4.654;2023-02-28T10:28:51;3.70;99.90
16907;DHT22;8570;52.380;4.654;2023-02-28T10:33:54;3.80;99.90
16907;DHT22;8570;52.380;4.654;2023-02-28T10:38:56;3.90;99.90
16907;DHT22;8570;52.380;4.654;2023-02-28T10:44:17;4.00;99.90
16907;DHT22;8570;52.380;4.654;2023-02-28T10:49:22;4.10;99.90
16907;DHT22;8570;52.380;4.654;2023-02-28T10:54:29;4.20;99.90
16907;DHT22;8570;52.380;4.654;2023-02-28T10:59:33;4.30;99.90
16907;DHT22;8570;52.380;4.654;2023-02-28T11:04:36;4.30;99.90
16907;DHT22;8570;52.380;4.654;2023-02-28T11:09:40;4.30;99.90
16907;DHT22;8570;52.380;4.654;2023-02-28T11:14:50;4.30;99.90
16907;DHT22;8570;52.380;4.654;2023-02-28T11:19:55;4.30;99.90
16907;DHT22;8570;52.380;4.654;2023-02-28T11:25:00;4.40;99.90
16907;DHT22;8570;52.380;4.654;2023-02-28T11:30:23;4.60;99.90
16907;DHT22;8570;52.380;4.654;2023-02-28T11:35:28;4.90;99.90
16907;DHT22;8570;52.380;4.654;2023-02-28T11:40:48;5.40;99.90
16907;DHT22;8570;52.380;4.654;2023-02-28T11:46:13;5.80;99.90
16907;DHT22;8570;52.380;4.654;2023-02-28T11:51:20;6.10;99.90
16907;DHT22;8570;52.380;4.654;2023-02-28T11:56:27;6.30;99.90
16907;DHT22;8570;52.380;4.654;2023-02-28T12:01:38;6.40;99.90
16907;DHT22;8570;52.380;4.654;2023-02-28T12:06:50;6.60;99.90
16907;DHT22;8570;52.380;4.654;2023-02-28T12:11:55;6.90;99.90
16907;DHT22;8570;52.380;4.654;2023-02-28T12:17:06;7.20;99.90
16907;DHT22;8570;52.380;4.654;2023-02-28T12:22:27;7.50;99.90
16907;DHT22;8570;52.380;4.654;2023-02-28T12:27:33;7.90;99.90
16907;DHT22;8570;52.380;4.654;2023-02-28T12:32:40;8.40;99.90
16907;DHT22;8570;52.380;4.654;2023-02-28T12:37:46;8.80;99.90
16907;DHT22;8570;52.380;4.654;2023-02-28T12:42:51;9.20;99.90
16907;DHT22;8570;52.380;4.654;2023-02-28T12:48:00;9.60;99.90
16907;DHT22;8570;52.380;4.654;2023-02-28T12:58:14;10.20;99.90
16907;DHT22;8570;52.380;4.654;2023-02-28T13:03:41;10.50;99.90
16907;DHT22;8570;52.380;4.654;2023-02-28T13:09:02;10.60;99.90
16907;DHT22;8570;52.380;4.654;2023-02-28T13:14:06;10.70;99.90
16907;DHT22;8570;52.380;4.654;2023-02-28T13:19:20;10.90;99.90
16907;DHT22;8570;52.380;4.654;2023-02-28T13:24:44;11.20;99.90
16907;DHT22;8570;52.380;4.654;2023-02-28T13:29:47;11.40;99.90
16907;DHT22;8570;52.380;4.654;2023-02-28T13:40:36;11.50;99.90
16907;DHT22;8570;52.380;4.654;2023-02-28T13:45:38;11.40;99.90
16907;DHT22;8570;52.380;4.654;2023-02-28T13:50:41;11.20;99.90
16907;DHT22;8570;52.380;4.654;2023-02-28T13:55:46;11.00;99.90
16907;DHT22;8570;52.380;4.654;2023-02-28T14:01:14;10.90;99.90
16907;DHT22;8570;52.380;4.654;2023-02-28T14:06:23;10.80;99.90
16907;DHT22;8570;52.380;4.654;2023-02-28T14:11:32;10.70;99.70
16907;DHT22;8570;52.380;4.654;2023-02-28T14:16:39;10.60;99.60
16907;DHT22;8570;52.380;4.654;2023-02-28T14:21:58;10.40;99.00
16907;DHT22;8570;52.380;4.654;2023-02-28T14:27:26;10.30;98.80
16907;DHT22;8570;52.380;4.654;2023-02-28T14:32:34;10.00;98.00
16907;DHT22;8570;52.380;4.654;2023-02-28T14:37:38;9.60;97.70
16907;DHT22;8570;52.380;4.654;2023-02-28T14:42:47;9.30;97.70
16907;DHT22;8570;52.380;4.654;2023-02-28T14:47:50;9.10;98.10
16907;DHT22;8570;52.380;4.654;2023-02-28T14:52:53;8.80;98.90
16907;DHT22;8570;52.380;4.654;2023-02-28T14:57:58;8.70;98.90
16907;DHT22;8570;52.380;4.654;2023-02-28T15:03:18;8.50;99.00
16907;DHT22;8570;52.380;4.654;2023-02-28T15:08:20;8.10;98.50
16907;DHT22;8570;52.380;4.654;2023-02-28T15:13:29;8.10;98.80
16907;DHT22;8570;52.380;4.654;2023-02-28T15:18:40;8.00;98.50
16907;DHT22;8570;52.380;4.654;2023-02-28T15:23:46;7.80;98.50
16907;DHT22;8570;52.380;4.654;2023-02-28T15:28:55;7.70;98.60
16907;DHT22;8570;52.380;4.654;2023-02-28T15:34:05;7.50;98.70
16907;DHT22;8570;52.380;4.654;2023-02-28T15:39:19;7.40;98.60
16907;DHT22;8570;52.380;4.654;2023-02-28T15:44:27;7.30;98.90
16907;DHT22;8570;52.380;4.654;2023-02-28T15:49:40;7.20;99.10
16907;DHT22;8570;52.380;4.654;2023-02-28T15:54:46;7.10;99.20
16907;DHT22;8570;52.380;4.654;2023-02-28T15:59:53;7.00;99.30
16907;DHT22;8570;52.380;4.654;2023-02-28T16:05:12;6.90;99.30
16907;DHT22;8570;52.380;4.654;2023-02-28T16:10:19;6.80;99.30
16907;DHT22;8570;52.380;4.654;2023-02-28T16:15:24;6.70;99.50
16907;DHT22;8570;52.380;4.654;2023-02-28T16:20:29;6.60;99.30
16907;DHT22;8570;52.380;4.654;2023-02-28T16:25:35;6.60;99.50
16907;DHT22;8570;52.380;4.654;2023-02-28T16:30:38;6.50;99.60
16907;DHT22;8570;52.380;4.654;2023-02-28T16:35:40;6.40;99.80
16907;DHT22;8570;52.380;4.654;2023-02-28T16:40:42;6.30;99.90
16907;DHT22;8570;52.380;4.654;2023-02-28T16:45:45;6.20;99.80
16907;DHT22;8570;52.380;4.654;2023-02-28T16:50:47;6.10;99.90
16907;DHT22;8570;52.380;4.654;2023-02-28T16:55:49;6.00;99.90
16907;DHT22;8570;52.380;4.654;2023-02-28T17:00:53;6.00;99.90
16907;DHT22;8570;52.380;4.654;2023-02-28T17:05:55;5.90;99.90
16907;DHT22;8570;52.380;4.654;2023-02-28T17:10:57;5.80;99.90
16907;DHT22;8570;52.380;4.654;2023-02-28T17:16:01;5.70;99.90
16907;DHT22;8570;52.380;4.654;2023-02-28T17:21:08;5.70;99.90
16907;DHT22;8570;52.380;4.654;2023-02-28T17:26:15;5.60;99.90
16907;DHT22;8570;52.380;4.654;2023-02-28T17:31:21;5.50;99.90
16907;DHT22;8570;52.380;4.654;2023-02-28T17:36:26;5.40;99.90
16907;DHT22;8570;52.380;4.654;2023-02-28T17:41:28;5.30;99.90
16907;DHT22;8570;52.380;4.654;2023-02-28T17:46:32;5.20;99.90
16907;DHT22;8570;52.380;4.654;2023-02-28T17:51:34;5.10;99.90
16907;DHT22;8570;52.380;4.654;2023-02-28T17:56:36;5.00;99.90
16907;DHT22;8570;52.380;4.654;2023-02-28T18:01:39;4.90;99.90
16907;DHT22;8570;52.380;4.654;2023-02-28T18:06:43;4.90;99.90
16907;DHT22;8570;52.380;4.654;2023-02-28T18:11:51;4.80;99.90
16907;DHT22;8570;52.380;4.654;2023-02-28T18:16:55;4.70;99.90
16907;DHT22;8570;52.380;4.654;2023-02-28T18:21:57;4.60;99.90
16907;DHT22;8570;52.380;4.654;2023-02-28T18:27:00;4.50;99.90
16907;DHT22;8570;52.380;4.654;2023-02-28T18:32:03;4.50;99.90
16907;DHT22;8570;52.380;4.654;2023-02-28T18:37:05;4.40;99.90
16907;DHT22;8570;52.380;4.654;2023-02-28T18:42:07;4.30;99.90
16907;DHT22;8570;52.380;4.654;2023-02-28T18:47:10;4.30;99.90
16907;DHT22;8570;52.380;4.654;2023-02-28T18:52:12;4.20;99.90
16907;DHT22;8570;52.380;4.654;2023-02-28T18:57:14;4.10;99.90
16907;DHT22;8570;52.380;4.654;2023-02-28T19:02:17;4.10;99.90
16907;DHT22;8570;52.380;4.654;2023-02-28T19:07:19;4.00;99.90
16907;DHT22;8570;52.380;4.654;2023-02-28T19:12:21;4.00;99.90
16907;DHT22;8570;52.380;4.654;2023-02-28T19:17:24;3.90;99.90
16907;DHT22;8570;52.380;4.654;2023-02-28T19:22:26;3.90;99.90
16907;DHT22;8570;52.380;4.654;2023-02-28T19:27:28;3.80;99.90
16907;DHT22;8570;52.380;4.654;2023-02-28T19:32:32;3.80;99.90
16907;DHT22;8570;52.380;4.654;2023-02-28T19:37:36;3.70;99.90
16907;DHT22;8570;52.380;4.654;2023-02-28T19:42:38;3.70;99.90
16907;DHT22;8570;52.380;4.654;2023-02-28T19:47:42;3.60;99.90
16907;DHT22;8570;52.380;4.654;2023-02-28T19:52:44;3.50;99.90
16907;DHT22;8570;52.380;4.654;2023-02-28T19:57:46;3.50;99.90
16907;DHT22;8570;52.380;4.654;2023-02-28T20:02:49;3.40;99.90
16907;DHT22;8570;52.380;4.654;2023-02-28T20:07:51;3.40;99.90
16907;DHT22;8570;52.380;4.654;2023-02-28T20:12:53;3.30;99.90
16907;DHT22;8570;52.380;4.654;2023-02-28T20:17:56;3.30;99.90
16907;DHT22;8570;52.380;4.654;2023-02-28T20:22:59;3.30;99.90
16907;DHT22;8570;52.380;4.654;2023-02-28T20:28:01;3.20;99.90
16907;DHT22;8570;52.380;4.654;2023-02-28T20:33:04;3.10;99.90
16907;DHT22;8570;52.380;4.654;2023-02-28T20:38:06;3.10;99.90
16907;DHT22;8570;52.380;4.654;2023-02-28T20:43:08;3.10;99.90
16907;DHT22;8570;52.380;4.654;2023-02-28T20:48:11;3.00;99.90
16907;DHT22;8570;52.380;4.654;2023-02-28T20:53:13;3.00;99.90
16907;DHT22;8570;52.380;4.654;2023-02-28T20:58:15;2.90;99.90
16907;DHT22;8570;52.380;4.654;2023-02-28T21:03:18;2.80;99.90
16907;DHT22;8570;52.380;4.654;2023-02-28T21:08:21;2.80;99.90
16907;DHT22;8570;52.380;4.654;2023-02-28T21:13:23;2.80;99.90
16907;DHT22;8570;52.380;4.654;2023-02-28T21:18:27;2.70;99.90
16907;DHT22;8570;52.380;4.654;2023-02-28T21:23:29;2.70;99.90
16907;DHT22;8570;52.380;4.654;2023-02-28T21:28:32;2.60;99.90
16907;DHT22;8570;52.380;4.654;2023-02-28T21:33:35;2.60;99.90
16907;DHT22;8570;52.380;4.654;2023-02-28T21:38:37;2.50;99.90
16907;DHT22;8570;52.380;4.654;2023-02-28T21:43:40;2.50;99.90
16907;DHT22;8570;52.380;4.654;2023-02-28T21:48:43;2.50;99.90
16907;DHT22;8570;52.380;4.654;2023-02-28T21:53:49;2.40;99.90
16907;DHT22;8570;52.380;4.654;2023-02-28T21:58:51;2.40;99.90
16907;DHT22;8570;52.380;4.654;2023-02-28T22:04:02;2.40;99.90
16907;DHT22;8570;52.380;4.654;2023-02-28T22:09:06;2.30;99.90
16907;DHT22;8570;52.380;4.654;2023-02-28T22:14:09;2.30;99.90
16907;DHT22;8570;52.380;4.654;2023-02-28T22:19:15;2.20;99.90
16907;DHT22;8570;52.380;4.654;2023-02-28T22:24:17;2.20;99.90
16907;DHT22;8570;52.380;4.654;2023-02-28T22:29:22;2.10;99.90
16907;DHT22;8570;52.380;4.654;2023-02-28T22:34:26;2.10;99.90
16907;DHT22;8570;52.380;4.654;2023-02-28T22:39:27;2.00;99.90
16907;DHT22;8570;52.380;4.654;2023-02-28T22:44:29;2.00;99.90
16907;DHT22;8570;52.380;4.654;2023-02-28T22:49:32;2.00;99.90
16907;DHT22;8570;52.380;4.654;2023-02-28T22:54:34;2.00;99.90
16907;DHT22;8570;52.380;4.654;2023-02-28T22:59:36;2.00;99.90
16907;DHT22;8570;52.380;4.654;2023-02-28T23:04:39;1.90;99.90
16907;DHT22;8570;52.380;4.654;2023-02-28T23:09:41;1.90;99.90
16907;DHT22;8570;52.380;4.654;2023-02-28T23:14:44;1.90;99.90
16907;DHT22;8570;52.380;4.654;2023-02-28T23:19:47;1.90;99.90
16907;DHT22;8570;52.380;4.654;2023-02-28T23:24:49;1.90;99.90
16907;DHT22;8570;52.380;4.654;2023-02-28T23:29:52;1.90;99.90
16907;DHT22;8570;52.380;4.654;2023-02-28T23:34:55;1.90;99.90
16907;DHT22;8570;52.380;4.654;2023-02-28T23:39:57;1.90;99.90
16907;DHT22;8570;52.380;4.654;2023-02-28T23:45:00;1.90;99.90
16907;DHT22;8570;52.380;4.654;2023-02-28T23:50:04;1.90;99.90
16907;DHT22;8570;52.380;4.654;2023-02-28T23:55:06;1.90;99.90
